Time;durP1;ratioP1;P1;durP2;ratioP2;P2;SDS_P1;SDS_P2;PMS_P1;PMS_P2;Temp;Humidity;BMP_temperature;BMP_pressure;BME280_temperature;BME280_humidity;BME280_pressure;Samples;Min_cycle;Max_cycle;Signal;HPM_P1;HPM_P2
2022/12/11 00:01:35;;;;;;;0.10;0.10;;;-3.50;99.90;;;;;;5058663;28;20094;-79
2022/12/11 00:04:01;;;;;;;0.13;0.13;;;-3.70;99.90;;;;;;5065121;28;20083;-79
2022/12/11 00:06:26;;;;;;;0.55;0.55;;;-3.60;99.90;;;;;;5061693;28;20041;-79
2022/12/11 00:08:53;;;;;;;0.20;0.20;;;-3.60;99.90;;;;;;5064407;28;20060;-80
2022/12/11 00:11:21;;;;;;;0.50;0.50;;;-3.70;99.90;;;;;;5066465;28;20028;-80
2022/12/11 00:13:46;;;;;;;0.10;0.10;;;-3.70;99.90;;;;;;5065778;28;20086;-80
2022/12/11 00:16:13;;;;;;;0.40;0.40;;;-3.70;99.90;;;;;;5065740;28;20587;-79
2022/12/11 00:18:38;;;;;;;0.40;0.40;;;-3.90;99.90;;;;;;5063198;28;20029;-79
2022/12/11 00:21:07;;;;;;;0.38;0.38;;;-3.90;99.90;;;;;;5064087;28;20036;-79
2022/12/11 00:23:35;;;;;;;0.30;0.30;;;-3.80;99.90;;;;;;5060748;28;20028;-79
2022/12/11 00:26:06;;;;;;;0.52;0.52;;;-3.80;99.90;;;;;;5061783;28;20044;-80
2022/12/11 00:28:31;;;;;;;0.20;0.20;;;-3.90;99.90;;;;;;5057672;28;20828;-79
2022/12/11 00:30:57;;;;;;;0.20;0.20;;;-3.80;99.90;;;;;;5062861;28;20033;-78
2022/12/11 00:33:25;;;;;;;0.55;0.55;;;-3.70;99.90;;;;;;5057707;28;20025;-78
2022/12/11 00:35:50;;;;;;;0.35;0.35;;;-3.80;99.90;;;;;;5058502;28;20504;-78
2022/12/11 00:38:19;;;;;;;0.28;0.28;;;-3.90;99.90;;;;;;5069141;28;20119;-78
2022/12/11 00:40:46;;;;;;;0.17;0.17;;;-3.90;99.90;;;;;;5055254;28;20033;-78
2022/12/11 00:43:12;;;;;;;0.10;0.10;;;-4.00;99.90;;;;;;5060603;28;20033;-77
2022/12/11 00:45:44;;;;;;;0.15;0.15;;;-4.10;99.90;;;;;;5058226;28;20037;-77
2022/12/11 00:48:10;;;;;;;0.25;0.25;;;-4.00;99.90;;;;;;5055835;28;20033;-78
2022/12/11 00:50:36;;;;;;;0.15;0.15;;;-4.00;99.90;;;;;;5061835;28;20100;-76
2022/12/11 00:53:03;;;;;;;0.40;0.40;;;-4.00;99.90;;;;;;5061800;28;20420;-78
2022/12/11 00:55:29;;;;;;;0.20;0.20;;;-4.20;99.90;;;;;;5062861;28;20024;-79
2022/12/11 00:57:57;;;;;;;0.35;0.35;;;-4.20;99.90;;;;;;5055945;28;20047;-78
2022/12/11 01:00:23;;;;;;;0.40;0.40;;;-4.20;99.90;;;;;;5055591;28;20036;-79
2022/12/11 01:02:49;;;;;;;0.20;0.20;;;-4.20;99.90;;;;;;5051780;28;20047;-78
2022/12/11 01:05:15;;;;;;;0.20;0.20;;;-4.30;99.90;;;;;;5058109;28;20048;-78
2022/12/11 01:07:41;;;;;;;0.10;0.10;;;-4.40;99.90;;;;;;5066123;28;20047;-79
2022/12/11 01:10:25;;;;;;;1.23;1.13;;;-4.30;99.90;;;;;;5056144;28;20090;-78
2022/12/11 01:12:54;;;;;;;0.43;0.43;;;-4.30;99.90;;;;;;5061974;28;20024;-78
2022/12/11 01:15:22;;;;;;;0.15;0.15;;;-4.30;99.90;;;;;;5064586;28;20357;-78
2022/12/11 01:17:49;;;;;;;0.73;0.73;;;-4.20;99.90;;;;;;5068198;28;20132;-78
2022/12/11 01:20:15;;;;;;;1.17;0.90;;;-4.00;99.90;;;;;;5065880;28;20072;-77
2022/12/11 01:22:41;;;;;;;0.88;0.88;;;-4.00;99.90;;;;;;5067802;28;20039;-78
2022/12/11 01:25:08;;;;;;;0.82;0.82;;;-4.10;99.90;;;;;;5067498;28;20543;-78
2022/12/11 01:27:35;;;;;;;0.20;0.20;;;-4.00;99.90;;;;;;5067765;28;20124;-77
2022/12/11 01:30:01;;;;;;;0.20;0.20;;;-3.90;99.90;;;;;;5067328;28;20052;-78
2022/12/11 01:32:27;;;;;;;0.20;0.20;;;-3.80;99.90;;;;;;5067516;28;20021;-78
2022/12/11 01:34:53;;;;;;;0.88;0.55;;;-3.90;99.90;;;;;;5065892;28;20067;-77
2022/12/11 01:37:19;;;;;;;0.10;0.10;;;-3.80;99.90;;;;;;5061953;28;20131;-77
2022/12/11 01:39:46;;;;;;;0.43;0.43;;;-3.80;99.90;;;;;;5062723;28;20028;-78
2022/12/11 01:42:17;;;;;;;0.10;0.10;;;-3.80;99.90;;;;;;5066906;28;20556;-78
2022/12/11 01:44:43;;;;;;;0.30;0.30;;;-3.90;99.90;;;;;;5063145;28;20043;-78
2022/12/11 01:47:09;;;;;;;0.10;0.10;;;-3.90;99.90;;;;;;5064195;28;20029;-78
2022/12/11 01:49:35;;;;;;;0.20;0.20;;;-3.80;99.90;;;;;;5063481;28;20105;-77
2022/12/11 01:52:09;;;;;;;0.20;0.20;;;-3.90;99.90;;;;;;5066446;28;20024;-78
2022/12/11 01:54:34;;;;;;;0.32;0.32;;;-3.80;99.90;;;;;;5067141;28;20060;-78
2022/12/11 01:57:04;;;;;;;0.25;0.25;;;-3.90;99.90;;;;;;5056498;28;20048;-78
2022/12/11 01:59:33;;;;;;;0.93;0.90;;;-3.90;99.90;;;;;;5064229;28;20028;-79
2022/12/11 02:02:32;;;;;;;0.65;0.65;;;-3.90;99.90;;;;;;5057677;28;20511;-79
2022/12/11 02:05:00;;;;;;;0.20;0.20;;;-4.00;99.90;;;;;;5007067;28;20052;-79
2022/12/11 02:07:29;;;;;;;0.35;0.30;;;-4.00;99.90;;;;;;5062750;28;20521;-78
2022/12/11 02:09:55;;;;;;;0.70;0.70;;;-4.00;99.90;;;;;;5067166;28;20060;-78
2022/12/11 02:12:41;;;;;;;0.73;0.70;;;-4.00;99.90;;;;;;5061733;28;20063;-79
2022/12/11 02:15:21;;;;;;;0.20;0.20;;;-4.20;99.90;;;;;;5049270;28;20040;-79
2022/12/11 02:18:07;;;;;;;0.17;0.17;;;-4.30;99.90;;;;;;5065063;28;20408;-78
2022/12/11 02:20:48;;;;;;;0.10;0.10;;;-4.30;99.90;;;;;;5049714;28;20033;-79
2022/12/11 02:23:21;;;;;;;0.10;0.10;;;-4.40;99.90;;;;;;5065872;28;20116;-81
2022/12/11 02:26:11;;;;;;;0.32;0.32;;;-4.40;99.90;;;;;;5066754;28;20028;-80
2022/12/11 02:29:07;;;;;;;0.17;0.17;;;-4.50;99.90;;;;;;5064833;28;20052;-81
2022/12/11 02:31:36;;;;;;;0.40;0.40;;;-4.50;99.90;;;;;;5042345;28;20078;-81
2022/12/11 02:34:26;;;;;;;0.10;0.10;;;-4.50;99.90;;;;;;5066412;28;20064;-82
2022/12/11 02:36:58;;;;;;;0.10;0.10;;;-4.40;99.90;;;;;;5064455;28;20036;-82
2022/12/11 02:39:26;;;;;;;0.60;0.55;;;-4.30;99.90;;;;;;5065652;28;20024;-82
2022/12/11 02:41:52;;;;;;;0.40;0.40;;;-4.30;99.90;;;;;;5064940;28;20100;-82
2022/12/11 02:44:23;;;;;;;0.80;0.80;;;-4.40;99.90;;;;;;5054574;28;20028;-81
2022/12/11 02:46:50;;;;;;;0.80;0.80;;;-4.30;99.90;;;;;;5058630;28;20025;-82
2022/12/11 02:49:18;;;;;;;0.30;0.30;;;-4.30;99.90;;;;;;5065228;28;20591;-83
2022/12/11 02:51:44;;;;;;;6.82;1.85;;;-4.20;99.90;;;;;;5054215;28;20204;-81
2022/12/11 02:54:20;;;;;;;0.60;0.55;;;-4.20;99.90;;;;;;5057843;28;20032;-81
2022/12/11 02:57:03;;;;;;;0.30;0.30;;;-4.30;99.90;;;;;;5058259;28;20033;-80
2022/12/11 02:59:35;;;;;;;0.10;0.10;;;-4.20;99.90;;;;;;5060268;28;20540;-81
2022/12/11 03:02:01;;;;;;;0.40;0.40;;;-4.20;99.90;;;;;;5063449;28;20033;-81
2022/12/11 03:04:28;;;;;;;0.20;0.20;;;-4.30;99.90;;;;;;5050704;28;20079;-79
2022/12/11 03:06:59;;;;;;;1.45;1.35;;;-4.30;99.90;;;;;;5063214;28;20020;-78
2022/12/11 03:09:26;;;;;;;0.10;0.10;;;-4.30;99.90;;;;;;5065817;28;20123;-81
2022/12/11 03:11:51;;;;;;;0.10;0.10;;;-4.30;99.90;;;;;;5059643;28;20029;-81
2022/12/11 03:14:18;;;;;;;1.27;1.27;;;-4.30;99.90;;;;;;5065000;28;20440;-81
2022/12/11 03:17:13;;;;;;;0.83;0.83;;;-4.40;99.90;;;;;;5058159;28;20397;-81
2022/12/11 03:19:40;;;;;;;0.20;0.20;;;-4.50;99.90;;;;;;5053484;28;21051;-81
2022/12/11 03:22:23;;;;;;;0.77;0.77;;;-4.50;99.90;;;;;;5065374;28;20036;-80
2022/12/11 03:25:00;;;;;;;1.05;1.05;;;-4.70;99.90;;;;;;5066217;28;20050;-79
2022/12/11 03:27:28;;;;;;;;;;;-4.70;99.90;;;;;;5065248;28;20054;-81
2022/12/11 03:30:04;;;;;;;0.20;0.20;;;-4.60;99.90;;;;;;5063899;28;19916;-81
2022/12/11 03:32:46;;;;;;;0.10;0.10;;;-4.70;99.90;;;;;;5058128;28;20787;-81
2022/12/11 03:35:28;;;;;;;0.30;0.30;;;-4.70;99.90;;;;;;5063313;28;20032;-81
2022/12/11 03:37:58;;;;;;;0.20;0.20;;;-4.70;99.90;;;;;;5066854;28;20028;-80
2022/12/11 03:40:26;;;;;;;0.22;0.22;;;-4.80;99.90;;;;;;5055769;28;20037;-80
2022/12/11 03:42:55;;;;;;;0.28;0.28;;;-4.70;99.90;;;;;;5059473;28;20499;-81
2022/12/11 03:45:23;;;;;;;0.10;0.10;;;-4.70;99.90;;;;;;5081264;28;20033;-81
2022/12/11 03:47:51;;;;;;;0.20;0.20;;;-4.80;99.90;;;;;;5058961;28;20089;-81
2022/12/11 03:50:19;;;;;;;0.20;0.20;;;-4.70;99.90;;;;;;5065368;28;20040;-80
2022/12/11 03:52:46;;;;;;;0.25;0.25;;;-4.80;99.90;;;;;;5065480;28;20510;-84
2022/12/11 03:55:15;;;;;;;0.60;0.60;;;-4.80;99.90;;;;;;5060727;28;20134;-81
2022/12/11 03:57:40;;;;;;;0.20;0.20;;;-4.80;99.90;;;;;;5060745;28;20029;-84
2022/12/11 04:00:12;;;;;;;0.20;0.20;;;-4.80;99.90;;;;;;5069389;28;20024;-82
2022/12/11 04:02:38;;;;;;;0.15;0.15;;;-4.80;99.90;;;;;;5068270;28;20032;-83
2022/12/11 04:05:04;;;;;;;0.30;0.30;;;-4.90;99.90;;;;;;5055512;28;20201;-83
2022/12/11 04:07:30;;;;;;;0.10;0.10;;;-4.80;99.90;;;;;;5067690;28;20121;-82
2022/12/11 04:09:56;;;;;;;0.25;0.25;;;-4.90;99.90;;;;;;5056032;28;20525;-83
2022/12/11 04:12:21;;;;;;;0.20;0.20;;;-4.80;99.90;;;;;;5066429;28;20029;-83
2022/12/11 04:15:02;;;;;;;0.40;0.40;;;-4.80;99.90;;;;;;5062982;28;20121;-83
2022/12/11 04:26:14;;;;;;;0.10;0.10;;;-4.80;99.90;;;;;;5059804;28;20043;-85
2022/12/11 04:28:41;;;;;;;0.60;0.60;;;-4.90;99.90;;;;;;5067261;28;20024;-84
2022/12/11 04:31:14;;;;;;;0.25;0.25;;;-4.90;99.90;;;;;;5057176;28;20033;-84
2022/12/11 04:33:41;;;;;;;0.85;0.85;;;-5.00;99.90;;;;;;5054508;28;20036;-84
2022/12/11 04:36:07;;;;;;;0.82;0.82;;;-5.00;99.90;;;;;;5058144;28;20044;-84
2022/12/11 04:38:33;;;;;;;0.20;0.20;;;-5.10;99.90;;;;;;5058742;28;20085;-85
2022/12/11 04:41:09;;;;;;;0.20;0.20;;;-5.00;99.90;;;;;;5057084;28;20116;-84
2022/12/11 04:43:35;;;;;;;0.20;0.20;;;-5.00;99.90;;;;;;5066345;28;20575;-84
2022/12/11 04:46:10;;;;;;;0.20;0.20;;;-5.00;99.90;;;;;;5061300;28;20068;-83
2022/12/11 04:48:36;;;;;;;0.28;0.28;;;-5.10;99.90;;;;;;5064779;28;20039;-84
2022/12/11 04:51:02;;;;;;;0.63;0.63;;;-5.20;99.90;;;;;;5056049;28;20690;-84
2022/12/11 04:53:28;;;;;;;1.20;1.10;;;-5.20;99.90;;;;;;5067842;28;20123;-84
2022/12/11 04:55:54;;;;;;;0.20;0.20;;;-5.20;99.90;;;;;;5068515;28;20153;-85
2022/12/11 04:58:20;;;;;;;0.20;0.20;;;-5.20;99.90;;;;;;5056231;28;20028;-84
2022/12/11 05:00:46;;;;;;;0.20;0.20;;;-5.20;99.90;;;;;;5067357;28;20024;-83
2022/12/11 05:03:12;;;;;;;1.00;1.00;;;-5.10;99.90;;;;;;5065266;28;20047;-84
2022/12/11 05:05:38;;;;;;;0.20;0.20;;;-5.10;99.90;;;;;;5067328;28;20057;-83
2022/12/11 05:08:04;;;;;;;0.43;0.43;;;-5.20;99.90;;;;;;5061122;28;20064;-86
2022/12/11 05:10:30;;;;;;;0.20;0.20;;;-5.30;99.90;;;;;;5065999;28;20166;-85
2022/12/11 05:12:56;;;;;;;1.30;1.27;;;-5.30;99.90;;;;;;5062485;28;20538;-85
2022/12/11 05:15:21;;;;;;;3.22;1.38;;;-5.30;99.90;;;;;;5063259;28;20120;-85
2022/12/11 05:17:47;;;;;;;4.57;1.45;;;-5.30;99.90;;;;;;5058835;28;20033;-87
2022/12/11 05:20:13;;;;;;;0.22;0.22;;;-5.40;99.90;;;;;;5065825;28;20115;-86
2022/12/11 05:22:38;;;;;;;0.52;0.52;;;-5.40;99.90;;;;;;5063938;28;20029;-85
2022/12/11 05:25:05;;;;;;;0.40;0.40;;;-5.40;99.90;;;;;;5061214;28;20039;-84
2022/12/11 05:27:31;;;;;;;0.20;0.20;;;-5.40;99.90;;;;;;5054048;28;20039;-86
2022/12/11 05:29:57;;;;;;;0.28;0.28;;;-5.50;99.90;;;;;;5054817;28;20093;-85
2022/12/11 05:32:23;;;;;;;0.20;0.20;;;-5.50;99.90;;;;;;5060399;28;20029;-85
2022/12/11 05:34:50;;;;;;;0.30;0.30;;;-5.40;99.90;;;;;;5062217;28;20041;-85
2022/12/11 05:37:15;;;;;;;0.35;0.35;;;-5.40;99.90;;;;;;5061883;28;20117;-85
2022/12/11 05:39:41;;;;;;;1.55;1.30;;;-5.40;99.90;;;;;;5060686;28;20083;-84
2022/12/11 05:42:07;;;;;;;0.28;0.28;;;-5.50;99.90;;;;;;5063210;28;20033;-82
2022/12/11 05:44:32;;;;;;;0.30;0.30;;;-5.30;99.90;;;;;;5057027;28;20029;-83
2022/12/11 05:46:58;;;;;;;2.67;0.90;;;-5.30;99.90;;;;;;5062605;28;20058;-82
2022/12/11 05:49:24;;;;;;;0.30;0.30;;;-5.20;99.90;;;;;;5061706;28;20032;-83
2022/12/11 05:51:49;;;;;;;0.47;0.47;;;-5.20;99.90;;;;;;5066068;28;20052;-82
2022/12/11 05:54:15;;;;;;;0.30;0.30;;;-5.20;99.90;;;;;;5066749;28;20020;-82
2022/12/11 05:56:41;;;;;;;0.17;0.17;;;-5.20;99.90;;;;;;5065116;28;20032;-82
2022/12/11 05:59:07;;;;;;;0.20;0.20;;;-5.30;99.90;;;;;;5056519;28;20029;-83
2022/12/11 06:01:34;;;;;;;0.10;0.10;;;-5.40;99.90;;;;;;5063918;28;20029;-83
2022/12/11 06:04:01;;;;;;;0.95;0.95;;;-5.40;99.90;;;;;;5057215;28;20029;-84
2022/12/11 06:06:27;;;;;;;1.45;1.40;;;-5.50;99.90;;;;;;5062370;28;20047;-84
2022/12/11 06:08:55;;;;;;;0.28;0.28;;;-5.40;99.90;;;;;;5075570;28;20419;-84
2022/12/11 06:11:22;;;;;;;0.20;0.20;;;-5.50;99.90;;;;;;5056654;28;20039;-84
2022/12/11 06:13:48;;;;;;;0.30;0.30;;;-5.40;99.90;;;;;;5059395;28;20021;-83
2022/12/11 06:16:14;;;;;;;2.90;1.65;;;-5.40;99.90;;;;;;5062764;28;20040;-84
2022/12/11 06:18:42;;;;;;;0.50;0.50;;;-5.30;99.90;;;;;;5061752;28;20050;-87
2022/12/11 06:21:12;;;;;;;0.20;0.20;;;-5.30;99.90;;;;;;5062436;28;20033;-84
2022/12/11 06:23:38;;;;;;;0.40;0.40;;;-5.40;99.90;;;;;;5059015;28;20099;-86
2022/12/11 06:26:04;;;;;;;0.70;0.70;;;-5.50;99.90;;;;;;5053232;28;20879;-85
2022/12/11 06:28:30;;;;;;;0.50;0.50;;;-5.50;99.90;;;;;;5065384;28;20029;-86
2022/12/11 06:30:58;;;;;;;0.20;0.20;;;-5.60;99.90;;;;;;5054555;28;20037;-84
2022/12/11 06:33:24;;;;;;;0.20;0.20;;;-5.60;99.90;;;;;;5062806;28;20029;-84
2022/12/11 06:35:50;;;;;;;0.20;0.20;;;-5.50;99.90;;;;;;5064714;28;20036;-84
2022/12/11 06:38:16;;;;;;;0.20;0.20;;;-5.50;99.90;;;;;;5064200;28;20029;-83
2022/12/11 06:40:42;;;;;;;0.68;0.68;;;-5.60;99.90;;;;;;5056205;28;20037;-86
2022/12/11 06:43:08;;;;;;;10.13;1.75;;;-5.50;99.90;;;;;;5071778;28;20041;-86
2022/12/11 06:45:35;;;;;;;0.20;0.20;;;-5.60;99.90;;;;;;5062301;28;20032;-82
2022/12/11 06:48:01;;;;;;;0.20;0.20;;;-5.70;99.90;;;;;;5059285;28;20048;-83
2022/12/11 06:50:26;;;;;;;1.25;0.80;;;-5.70;99.90;;;;;;5064121;28;20037;-82
2022/12/11 06:52:52;;;;;;;0.10;0.10;;;-5.60;99.90;;;;;;5058260;28;20113;-81
2022/12/11 06:55:18;;;;;;;0.35;0.35;;;-5.60;99.90;;;;;;5068524;28;20027;-82
2022/12/11 06:57:43;;;;;;;0.50;0.50;;;-5.70;99.90;;;;;;5065395;28;20032;-89
2022/12/11 07:00:10;;;;;;;6.45;1.02;;;-5.60;99.90;;;;;;5067373;28;20799;-84
2022/12/11 07:02:35;;;;;;;0.50;0.50;;;-5.80;99.90;;;;;;5065304;28;20103;-80
2022/12/11 07:05:01;;;;;;;0.20;0.20;;;-5.80;99.90;;;;;;5057296;28;20148;-82
2022/12/11 07:07:27;;;;;;;0.32;0.32;;;-5.80;99.90;;;;;;5056881;28;20040;-83
2022/12/11 07:09:52;;;;;;;0.65;0.65;;;-5.80;99.90;;;;;;5061097;28;20621;-81
2022/12/11 07:12:18;;;;;;;0.20;0.20;;;-5.80;99.90;;;;;;5066350;28;20024;-79
2022/12/11 07:14:44;;;;;;;0.30;0.30;;;-5.80;99.90;;;;;;5061393;28;20499;-82
2022/12/11 07:17:10;;;;;;;0.30;0.30;;;-5.80;99.90;;;;;;5066240;28;20112;-82
2022/12/11 07:19:36;;;;;;;0.40;0.40;;;-5.70;99.90;;;;;;5057714;28;20092;-82
2022/12/11 07:22:01;;;;;;;0.20;0.20;;;-5.70;99.90;;;;;;5061551;28;20031;-84
2022/12/11 07:24:27;;;;;;;0.22;0.22;;;-5.80;99.90;;;;;;5050620;28;20681;-82
2022/12/11 07:26:53;;;;;;;0.28;0.28;;;-5.80;99.90;;;;;;5063119;28;20035;-82
2022/12/11 07:29:18;;;;;;;0.45;0.45;;;-5.70;99.90;;;;;;5062580;28;20044;-84
2022/12/11 07:31:44;;;;;;;0.63;0.45;;;-5.70;99.90;;;;;;5064039;28;20107;-86
2022/12/11 07:34:12;;;;;;;1.27;1.17;;;-5.70;99.90;;;;;;5061663;28;20607;-86
2022/12/11 07:36:37;;;;;;;0.30;0.30;;;-5.80;99.90;;;;;;5053433;28;20078;-85
2022/12/11 07:39:03;;;;;;;0.20;0.20;;;-5.80;99.90;;;;;;5054943;28;20025;-86
2022/12/11 07:41:30;;;;;;;0.45;0.45;;;-5.80;99.90;;;;;;5054950;28;20028;-83
2022/12/11 07:43:57;;;;;;;;;;;-5.80;99.90;;;;;;5055817;28;20543;-85
2022/12/11 07:46:26;;;;;;;0.20;0.20;;;-5.70;99.90;;;;;;5060742;28;19912;-83
2022/12/11 07:48:52;;;;;;;1.65;1.55;;;-5.70;99.90;;;;;;5066491;28;20112;-84
2022/12/11 07:51:19;;;;;;;0.20;0.20;;;-5.60;99.90;;;;;;5056762;28;20116;-82
2022/12/11 07:53:47;;;;;;;0.28;0.28;;;-5.60;99.90;;;;;;5069832;28;20140;-83
2022/12/11 07:56:14;;;;;;;1.30;1.30;;;-5.60;99.90;;;;;;5060443;28;20074;-82
2022/12/11 07:58:40;;;;;;;;;;;-5.50;99.90;;;;;;5049776;28;20042;-84
2022/12/11 08:01:12;;;;;;;0.67;0.67;;;-5.50;99.90;;;;;;5058574;28;20619;-83
2022/12/11 08:03:38;;;;;;;0.20;0.20;;;-5.50;99.90;;;;;;5059339;28;20078;-82
2022/12/11 08:06:04;;;;;;;0.20;0.20;;;-5.40;99.90;;;;;;5063385;28;20518;-82
2022/12/11 08:08:30;;;;;;;0.10;0.10;;;-5.20;99.90;;;;;;5055234;28;20947;-82
2022/12/11 08:10:59;;;;;;;0.47;0.47;;;-5.10;99.90;;;;;;5060371;28;20033;-83
2022/12/11 08:13:25;;;;;;;0.20;0.20;;;-5.10;99.90;;;;;;5064701;28;20024;-81
2022/12/11 08:15:50;;;;;;;0.25;0.25;;;-5.10;99.90;;;;;;5061295;28;20758;-81
2022/12/11 08:18:16;;;;;;;0.20;0.20;;;-5.00;99.90;;;;;;5063408;28;20021;-80
2022/12/11 08:20:42;;;;;;;0.60;0.60;;;-5.00;99.90;;;;;;5059542;28;20041;-80
2022/12/11 08:23:07;;;;;;;0.20;0.20;;;-5.00;99.90;;;;;;5058187;28;20633;-80
2022/12/11 08:25:34;;;;;;;0.20;0.20;;;-4.70;99.90;;;;;;5059406;28;20035;-81
2022/12/11 08:28:00;;;;;;;1.70;0.90;;;-4.40;99.90;;;;;;5065909;28;20483;-81
2022/12/11 08:30:25;;;;;;;0.20;0.20;;;-4.40;99.90;;;;;;5058909;28;20064;-81
2022/12/11 08:32:51;;;;;;;0.20;0.20;;;-4.20;99.90;;;;;;5062286;28;20024;-81
2022/12/11 08:35:17;;;;;;;0.55;0.55;;;-4.00;99.90;;;;;;5060812;28;20071;-81
2022/12/11 08:37:43;;;;;;;0.10;0.10;;;-3.90;99.90;;;;;;5061027;28;20503;-84
2022/12/11 08:40:09;;;;;;;0.30;0.30;;;-3.80;99.90;;;;;;5056390;28;20120;-87
2022/12/11 08:42:35;;;;;;;1.25;1.25;;;-3.70;99.90;;;;;;5069476;28;20033;-80
2022/12/11 08:45:01;;;;;;;1.23;1.08;;;-3.50;99.90;;;;;;5063172;28;20055;-83
2022/12/11 08:47:26;;;;;;;2.20;1.73;;;-3.70;99.90;;;;;;5063138;28;20176;-81
2022/12/11 08:49:52;;;;;;;0.20;0.20;;;-3.50;99.90;;;;;;5057335;28;20033;-80
2022/12/11 08:52:18;;;;;;;0.60;0.60;;;-3.30;99.90;;;;;;5066974;28;20046;-83
2022/12/11 08:54:44;;;;;;;2.83;1.38;;;-3.10;99.90;;;;;;5057793;28;20110;-81
2022/12/11 08:57:09;;;;;;;0.28;0.28;;;-3.00;99.90;;;;;;5061247;28;20735;-82
2022/12/11 08:59:35;;;;;;;0.10;0.10;;;-2.80;99.90;;;;;;5066933;28;20032;-79
2022/12/11 09:02:01;;;;;;;0.10;0.10;;;-2.80;99.90;;;;;;5057120;28;20036;-82
2022/12/11 09:04:26;;;;;;;0.30;0.30;;;-2.70;99.90;;;;;;5055356;28;20075;-84
2022/12/11 09:06:52;;;;;;;0.25;0.25;;;-2.70;99.90;;;;;;5058007;28;20117;-88
2022/12/11 09:09:18;;;;;;;0.30;0.30;;;-2.40;99.90;;;;;;5064291;28;20039;-84
2022/12/11 09:11:43;;;;;;;0.10;0.10;;;-2.40;99.90;;;;;;5063119;28;20570;-83
2022/12/11 09:14:09;;;;;;;0.25;0.25;;;-2.20;99.90;;;;;;5058750;28;20125;-84
2022/12/11 09:16:39;;;;;;;0.40;0.40;;;-1.90;99.90;;;;;;5061871;28;20039;-84
2022/12/11 09:19:06;;;;;;;0.20;0.20;;;-1.70;99.90;;;;;;5060814;28;20200;-87
2022/12/11 09:21:32;;;;;;;3.15;1.55;;;-1.70;99.90;;;;;;5062908;28;20033;-87
2022/12/11 09:24:00;;;;;;;0.10;0.10;;;-1.80;99.90;;;;;;5061511;28;20032;-85
2022/12/11 09:26:27;;;;;;;0.52;0.32;;;-2.20;99.90;;;;;;5060199;28;20021;-90
2022/12/11 09:28:53;;;;;;;0.13;0.13;;;-2.40;99.90;;;;;;5057119;28;20072;-90
2022/12/11 09:31:25;;;;;;;0.10;0.10;;;-2.50;99.90;;;;;;5071824;28;20047;-88
2022/12/11 09:33:56;;;;;;;0.82;0.82;;;-2.60;99.90;;;;;;5061190;28;20040;-86
2022/12/11 09:36:22;;;;;;;0.13;0.13;;;-2.60;99.90;;;;;;5049512;28;20033;-81
2022/12/11 09:38:48;;;;;;;0.90;0.90;;;-2.40;99.90;;;;;;5061122;28;20029;-82
2022/12/11 09:41:20;;;;;;;0.20;0.20;;;-2.20;99.90;;;;;;5057314;28;20458;-85
2022/12/11 09:43:58;;;;;;;0.10;0.10;;;-2.30;99.90;;;;;;5060854;28;20040;-82
2022/12/11 09:46:25;;;;;;;2.08;0.80;;;-2.20;99.90;;;;;;5053835;28;20025;-81
2022/12/11 09:48:52;;;;;;;4.80;1.75;;;-2.20;99.90;;;;;;5058331;28;20483;-83
2022/12/11 09:51:31;;;;;;;;;;;-2.20;99.90;;;;;;5057811;28;20037;-82
2022/12/11 09:54:01;;;;;;;0.20;0.20;;;-2.00;99.90;;;;;;5052666;28;19913;-85
2022/12/11 09:56:52;;;;;;;0.10;0.10;;;-1.90;99.90;;;;;;5060317;28;20039;-83
2022/12/11 09:59:32;;;;;;;0.45;0.45;;;-1.80;99.90;;;;;;5052384;28;20044;-86
2022/12/11 10:02:36;;;;;;;0.20;0.20;;;-1.90;99.90;;;;;;5061862;28;20032;-82
2022/12/11 10:05:11;;;;;;;0.73;0.73;;;-1.80;99.90;;;;;;5048005;28;20049;-86
2022/12/11 10:08:13;;;;;;;0.20;0.20;;;-1.80;99.90;;;;;;5060098;28;20059;-81
2022/12/11 10:10:55;;;;;;;0.22;0.22;;;-1.70;99.90;;;;;;5047989;28;20037;-81
2022/12/11 10:13:32;;;;;;;0.45;0.45;;;-1.60;99.90;;;;;;5063305;28;20028;-81
2022/12/11 10:16:04;;;;;;;0.85;0.85;;;-1.60;99.90;;;;;;5057743;28;20123;-82
2022/12/11 10:18:31;;;;;;;1.02;1.00;;;-1.40;99.90;;;;;;5055700;28;20591;-82
2022/12/11 10:21:01;;;;;;;0.20;0.20;;;-1.30;99.90;;;;;;5058773;28;20063;-83
2022/12/11 10:23:34;;;;;;;3.88;0.90;;;-1.00;99.90;;;;;;5067461;28;20032;-80
2022/12/11 10:26:09;;;;;;;1.40;1.00;;;-1.00;99.90;;;;;;5071336;28;20123;-80
2022/12/11 10:28:35;;;;;;;0.57;0.57;;;-0.80;99.90;;;;;;5065693;28;20527;-83
2022/12/11 10:31:18;;;;;;;0.32;0.32;;;-0.90;99.90;;;;;;5064010;28;20056;-81
2022/12/11 10:34:07;;;;;;;0.45;0.45;;;-0.80;99.90;;;;;;5064006;28;20396;-79
2022/12/11 10:36:41;;;;;;;0.20;0.20;;;-0.90;99.90;;;;;;5063598;28;20078;-78
2022/12/11 10:39:15;;;;;;;1.65;0.90;;;-0.90;99.90;;;;;;5066734;28;20812;-79
2022/12/11 10:41:43;;;;;;;0.38;0.38;;;-0.80;99.90;;;;;;5063864;28;20638;-83
2022/12/11 10:44:18;;;;;;;0.38;0.38;;;-0.70;99.90;;;;;;5065719;28;20020;-79
2022/12/11 10:46:46;;;;;;;0.10;0.10;;;-0.60;99.90;;;;;;5064681;28;20032;-79
2022/12/11 10:49:30;;;;;;;0.10;0.10;;;-0.60;99.90;;;;;;5061969;28;20020;-80
2022/12/11 10:52:00;;;;;;;0.10;0.10;;;-0.60;99.90;;;;;;5063781;28;20029;-80
2022/12/11 10:54:26;;;;;;;0.50;0.50;;;-0.50;99.90;;;;;;5060470;28;20028;-79
2022/12/11 10:56:53;;;;;;;0.57;0.57;;;-0.50;99.90;;;;;;5059904;28;20030;-79
2022/12/11 10:59:33;;;;;;;0.20;0.20;;;-0.30;99.90;;;;;;5058343;28;20033;-79
2022/12/11 11:01:59;;;;;;;0.30;0.30;;;-0.30;99.40;;;;;;5055819;28;20078;-79
2022/12/11 11:04:45;;;;;;;6.05;2.13;;;-0.30;98.50;;;;;;5056769;28;20055;-77
2022/12/11 11:07:12;;;;;;;0.43;0.40;;;-0.50;98.40;;;;;;5056390;28;20053;-80
2022/12/11 11:09:41;;;;;;;0.20;0.20;;;-0.40;98.50;;;;;;5053816;28;20064;-78
2022/12/11 11:12:38;;;;;;;0.10;0.10;;;-0.20;99.00;;;;;;5054848;28;20028;-78
2022/12/11 11:15:10;;;;;;;0.20;0.20;;;-0.10;98.60;;;;;;5046037;28;20091;-79
2022/12/11 11:18:10;;;;;;;0.28;0.28;;;-0.10;97.70;;;;;;5050967;28;20838;-78
2022/12/11 11:20:42;;;;;;;0.30;0.30;;;0.10;96.90;;;;;;5046393;28;20039;-78
2022/12/11 11:23:13;;;;;;;0.10;0.10;;;0.10;96.20;;;;;;5051184;28;20041;-78
2022/12/11 11:25:39;;;;;;;0.50;0.50;;;0.20;95.70;;;;;;5048932;28;20495;-79
2022/12/11 11:28:16;;;;;;;0.47;0.47;;;0.40;96.80;;;;;;5060002;28;20182;-78
2022/12/11 11:30:52;;;;;;;1.55;1.17;;;0.30;96.40;;;;;;5050003;28;20295;-78
2022/12/11 11:33:21;;;;;;;0.10;0.10;;;0.30;95.20;;;;;;5049570;28;20072;-78
2022/12/11 11:35:59;;;;;;;0.17;0.17;;;0.40;95.20;;;;;;5049348;28;20029;-77
2022/12/11 11:38:30;;;;;;;0.10;0.10;;;0.50;95.00;;;;;;5050319;28;20025;-78
2022/12/11 11:41:14;;;;;;;0.40;0.40;;;0.50;93.30;;;;;;5048476;28;20055;-77
2022/12/11 11:43:48;;;;;;;0.10;0.10;;;0.50;94.00;;;;;;5050231;28;20383;-78
2022/12/11 11:46:40;;;;;;;0.20;0.20;;;0.50;93.90;;;;;;5051783;28;20037;-78
2022/12/11 11:49:17;;;;;;;0.00;0.00;;;0.50;94.00;;;;;;5057594;28;20161;-79
2022/12/11 11:51:48;;;;;;;0.35;0.35;;;0.50;94.70;;;;;;5054980;28;20597;-77
2022/12/11 11:54:38;;;;;;;0.10;0.10;;;0.50;93.70;;;;;;5058762;28;20067;-77
2022/12/11 11:57:16;;;;;;;0.13;0.13;;;0.60;94.40;;;;;;5066054;28;20033;-76
2022/12/11 11:59:48;;;;;;;0.15;0.15;;;0.60;93.20;;;;;;5054019;28;20080;-79
2022/12/11 12:02:16;;;;;;;0.10;0.10;;;0.60;93.40;;;;;;5051437;28;20082;-80
2022/12/11 12:04:43;;;;;;;0.20;0.20;;;0.70;94.40;;;;;;5061457;28;20037;-79
2022/12/11 12:07:50;;;;;;;0.10;0.10;;;0.80;94.40;;;;;;5052015;28;20545;-82
2022/12/11 12:10:20;;;;;;;;;;;0.80;94.20;;;;;;5052342;28;20048;-79
2022/12/11 12:13:00;;;;;;;1.48;1.00;;;0.80;94.80;;;;;;5047436;28;19908;-82
2022/12/11 12:15:42;;;;;;;0.63;0.63;;;0.80;94.10;;;;;;5050762;28;20101;-79
2022/12/11 12:18:36;;;;;;;0.10;0.10;;;0.90;94.50;;;;;;5052769;28;20030;-81
2022/12/11 12:21:28;;;;;;;0.10;0.10;;;0.90;94.20;;;;;;5047052;28;20827;-80
2022/12/11 12:24:36;;;;;;;0.10;0.10;;;1.00;95.30;;;;;;5053288;28;20058;-77
2022/12/11 12:27:37;;;;;;;0.15;0.15;;;1.10;95.40;;;;;;5052979;28;20844;-79
2022/12/11 12:30:07;;;;;;;0.60;0.38;;;1.00;94.10;;;;;;5051543;28;20044;-79
2022/12/11 12:32:42;;;;;;;0.22;0.22;;;1.00;95.90;;;;;;5059613;28;20033;-79
2022/12/11 12:35:33;;;;;;;0.35;0.35;;;1.10;95.60;;;;;;5056108;28;20792;-79
2022/12/11 12:38:25;;;;;;;0.10;0.10;;;1.10;95.40;;;;;;5063905;28;20025;-79
2022/12/11 12:41:13;;;;;;;0.40;0.40;;;1.20;96.40;;;;;;5063805;28;20032;-79
2022/12/11 12:43:45;;;;;;;0.43;0.43;;;1.70;99.90;;;;;;5054796;28;20090;-79
2022/12/11 12:46:18;;;;;;;0.55;0.35;;;1.70;99.90;;;;;;5062550;28;20399;-85
2022/12/11 12:48:44;;;;;;;0.65;0.65;;;1.80;99.90;;;;;;5056031;28;20045;-83
2022/12/11 12:51:14;;;;;;;0.20;0.20;;;1.60;99.90;;;;;;5055494;28;20107;-81
2022/12/11 12:53:44;;;;;;;0.30;0.30;;;1.50;99.90;;;;;;5057966;28;20476;-83
2022/12/11 12:56:11;;;;;;;1.38;0.88;;;1.60;99.90;;;;;;5057269;28;20531;-77
2022/12/11 12:58:43;;;;;;;0.98;0.98;;;1.50;99.90;;;;;;5062244;28;20025;-78
2022/12/11 13:01:16;;;;;;;0.93;0.93;;;1.50;99.90;;;;;;5055062;28;20120;-77
2022/12/11 13:03:57;;;;;;;0.85;0.85;;;1.50;99.90;;;;;;5057889;28;20044;-77
2022/12/11 13:06:33;;;;;;;0.32;0.28;;;1.40;99.90;;;;;;5060849;28;20052;-77
2022/12/11 13:09:21;;;;;;;3.47;1.55;;;1.40;99.90;;;;;;5055631;28;20506;-78
2022/12/11 13:11:52;;;;;;;2.08;1.77;;;1.60;99.90;;;;;;5058029;28;20033;-79
2022/12/11 13:14:17;;;;;;;0.57;0.57;;;1.50;99.90;;;;;;5051418;28;20024;-76
2022/12/11 13:16:46;;;;;;;1.35;1.25;;;1.50;99.90;;;;;;5052290;28;20074;-79